Terminal Aerodrome Forecast
Issued by NWS

Home | Current Version | Previous Version | Graphics & Text | Print | Product List | Glossary On
Versions: 1 2 3 4 5 6 7 8 9 10 11 12 13 14 15 16 17 18 19 20 21 22 23 24
419
FTUS42 KMHX 240900 AAA
TAFOAJ
TAF AMD
KOAJ 240900Z 2409/2506 VRB04KT P6SM OVC070
      TEMPO 2410/2413 3SM BR BKN004
     FM241400 22005KT P6SM BKN015
     FM241600 22007KT P6SM SCT035
     FM242100 19007KT P6SM SCT250
      AMD LTD TO CLD VIS AND WIND=

USA.gov is the U.S. government's official web portal to all federal, state and local government web resources and services.